Time;durP1;ratioP1;P1;durP2;ratioP2;P2;SDS_P1;SDS_P2;PMS_P1;PMS_P2;Temp;Humidity;BMP_temperature;BMP_pressure;BME280_temperature;BME280_humidity;BME280_pressure;Samples;Min_cycle;Max_cycle;Signal;HPM_P1;HPM_P2
2021/07/26 00:01:15;;;;;;;6.77;5.50;;;17.50;99.90;;;;;;4995353;28;20268;-74
2021/07/26 00:03:41;;;;;;;12.60;5.23;;;17.50;99.90;;;;;;5013121;28;20269;-75
2021/07/26 00:06:06;;;;;;;5.70;5.10;;;17.50;99.90;;;;;;5013373;28;20212;-74
2021/07/26 00:08:32;;;;;;;10.53;5.23;;;17.50;99.90;;;;;;5012742;28;20285;-74
2021/07/26 00:10:59;;;;;;;6.93;5.17;;;17.50;99.90;;;;;;5012905;28;20185;-74
2021/07/26 00:13:25;;;;;;;7.47;5.00;;;17.50;99.90;;;;;;5015239;28;20262;-74
2021/07/26 00:15:51;;;;;;;6.97;4.80;;;17.50;99.90;;;;;;5016786;28;20593;-75
2021/07/26 00:18:16;;;;;;;7.83;4.77;;;17.50;99.90;;;;;;5016643;28;20794;-74
2021/07/26 00:20:42;;;;;;;8.70;5.00;;;17.50;99.90;;;;;;5016759;28;20215;-75
2021/07/26 00:23:07;;;;;;;6.20;4.93;;;17.50;99.90;;;;;;5016871;28;20184;-75
2021/07/26 00:25:33;;;;;;;8.57;5.57;;;17.40;99.90;;;;;;4998937;28;20314;-74
2021/07/26 00:27:59;;;;;;;6.63;5.30;;;17.40;99.90;;;;;;5016574;28;20254;-74
2021/07/26 00:30:24;;;;;;;7.23;5.27;;;17.40;99.90;;;;;;5016673;28;20174;-74
2021/07/26 00:32:50;;;;;;;9.40;5.43;;;17.40;99.90;;;;;;4998889;28;20289;-74
2021/07/26 00:35:16;;;;;;;6.90;5.43;;;17.20;99.90;;;;;;5016516;28;20185;-74
2021/07/26 00:37:41;;;;;;;8.07;4.93;;;17.30;99.90;;;;;;5016284;28;20686;-74
2021/07/26 00:40:09;;;;;;;6.07;5.47;;;17.30;99.90;;;;;;5016441;28;20218;-74
2021/07/26 00:42:36;;;;;;;7.60;5.93;;;17.20;99.90;;;;;;5016996;28;20568;-74
2021/07/26 00:45:03;;;;;;;8.87;4.83;;;17.30;99.90;;;;;;4998674;28;20619;-73
2021/07/26 00:47:29;;;;;;;7.60;5.10;;;17.40;99.90;;;;;;5016137;28;20215;-74
2021/07/26 00:49:55;;;;;;;8.33;5.60;;;17.40;99.90;;;;;;5016176;28;20174;-74
2021/07/26 00:52:21;;;;;;;9.33;5.37;;;17.40;99.90;;;;;;5016395;28;20599;-74
2021/07/26 00:54:48;;;;;;;7.00;4.93;;;17.40;99.90;;;;;;5016188;28;20174;-74
2021/07/26 00:57:13;;;;;;;10.47;5.20;;;17.30;99.90;;;;;;4998301;28;20744;-74
2021/07/26 00:59:39;;;;;;;7.67;5.10;;;17.40;99.90;;;;;;4999423;28;20186;-74
2021/07/26 01:02:05;;;;;;;9.10;5.20;;;17.40;99.90;;;;;;5015932;28;20677;-74
2021/07/26 01:04:31;;;;;;;6.77;4.90;;;17.40;99.90;;;;;;5015955;28;20236;-74
2021/07/26 01:06:57;;;;;;;6.07;5.47;;;17.50;99.90;;;;;;5015714;28;20210;-75
2021/07/26 01:09:23;;;;;;;7.03;5.30;;;17.50;99.90;;;;;;4998966;28;20260;-74
2021/07/26 01:11:49;;;;;;;7.93;5.00;;;17.40;99.90;;;;;;5015777;28;20185;-74
2021/07/26 01:14:15;;;;;;;7.17;5.40;;;17.40;99.90;;;;;;5015877;28;20556;-74
2021/07/26 01:16:45;;;;;;;6.97;5.20;;;17.40;99.90;;;;;;5015539;28;20297;-75
2021/07/26 01:19:11;;;;;;;7.40;5.30;;;17.40;99.90;;;;;;5015908;28;20552;-74
2021/07/26 01:21:36;;;;;;;6.10;5.50;;;17.40;99.90;;;;;;5015282;28;20182;-74
2021/07/26 01:24:03;;;;;;;14.07;5.50;;;17.30;99.90;;;;;;5015405;28;20179;-75
2021/07/26 01:26:30;;;;;;;5.93;5.43;;;17.30;99.90;;;;;;5015405;28;20208;-75
2021/07/26 01:29:02;;;;;;;6.87;4.90;;;17.30;99.90;;;;;;5015744;28;20598;-75
2021/07/26 01:31:28;;;;;;;10.17;5.20;;;17.40;99.90;;;;;;4998332;28;20217;-74
2021/07/26 01:33:55;;;;;;;7.00;5.77;;;17.30;99.90;;;;;;5015031;28;20617;-74
2021/07/26 01:36:22;;;;;;;6.17;5.60;;;17.30;99.90;;;;;;4997770;28;20216;-75
2021/07/26 01:38:51;;;;;;;11.03;5.30;;;17.30;99.90;;;;;;5015350;28;20198;-74
2021/07/26 01:41:22;;;;;;;9.10;7.10;;;17.20;99.90;;;;;;5015496;28;20229;-74
2021/07/26 01:46:49;;;;;;;9.40;6.30;;;17.40;99.90;;;;;;5015048;28;20208;-75
2021/07/26 01:49:26;;;;;;;7.73;6.80;;;17.40;99.90;;;;;;5015259;28;20231;-74
2021/07/26 01:51:52;;;;;;;8.97;6.67;;;17.40;99.90;;;;;;4997429;28;20267;-74
2021/07/26 01:54:18;;;;;;;8.90;6.80;;;17.40;99.90;;;;;;4998097;28;20205;-74
2021/07/26 01:56:44;;;;;;;8.90;5.77;;;17.40;99.90;;;;;;5014866;28;20284;-74
2021/07/26 01:59:10;;;;;;;7.60;6.10;;;17.40;99.90;;;;;;5015155;28;20636;-74
2021/07/26 02:01:36;;;;;;;8.53;5.90;;;17.40;99.90;;;;;;5014921;28;20639;-74
2021/07/26 02:04:02;;;;;;;8.70;5.93;;;17.50;99.90;;;;;;5014767;28;20224;-74
2021/07/26 02:06:27;;;;;;;7.93;6.47;;;17.50;99.90;;;;;;4997072;28;20213;-74
2021/07/26 02:08:53;;;;;;;8.80;7.33;;;17.50;99.90;;;;;;5014726;28;20183;-74
2021/07/26 02:11:22;;;;;;;15.03;8.23;;;17.50;99.90;;;;;;5014790;28;20258;-74
2021/07/26 02:13:51;;;;;;;14.70;8.80;;;17.50;99.90;;;;;;5014693;28;20230;-75
2021/07/26 02:16:17;;;;;;;12.83;6.70;;;17.50;99.90;;;;;;5014961;28;20166;-74
2021/07/26 02:18:42;;;;;;;9.97;6.67;;;17.60;99.90;;;;;;5011452;28;20193;-74
2021/07/26 02:21:08;;;;;;;7.60;6.67;;;17.50;99.90;;;;;;5015240;28;20183;-74
2021/07/26 02:23:34;;;;;;;9.17;6.10;;;17.50;99.90;;;;;;5018589;28;20193;-74
2021/07/26 02:26:00;;;;;;;10.43;6.87;;;17.40;99.90;;;;;;5012293;28;20189;-75
2021/07/26 02:28:25;;;;;;;10.53;7.70;;;17.30;99.90;;;;;;5013977;28;20258;-74
2021/07/26 02:30:51;;;;;;;7.67;6.97;;;17.30;99.90;;;;;;5013618;28;20548;-74
2021/07/26 02:33:16;;;;;;;9.17;7.47;;;17.30;99.90;;;;;;5014310;28;20186;-74
2021/07/26 02:35:42;;;;;;;10.23;7.50;;;17.40;99.90;;;;;;5012753;28;20201;-75
2021/07/26 02:38:08;;;;;;;8.63;7.07;;;17.40;99.90;;;;;;5012804;28;20297;-74
2021/07/26 02:40:33;;;;;;;11.53;6.80;;;17.40;99.90;;;;;;5014350;28;20189;-74
2021/07/26 02:42:59;;;;;;;10.17;6.90;;;17.40;99.90;;;;;;5014130;28;20212;-74
2021/07/26 02:45:26;;;;;;;9.00;6.70;;;17.50;99.90;;;;;;5014064;28;20186;-74
2021/07/26 02:47:52;;;;;;;7.10;6.27;;;17.40;99.90;;;;;;5012608;28;20272;-74
2021/07/26 02:50:18;;;;;;;11.60;6.63;;;17.40;99.90;;;;;;5014072;28;20189;-74
2021/07/26 02:52:44;;;;;;;7.83;6.30;;;17.30;99.90;;;;;;5013908;28;20181;-74
2021/07/26 02:55:10;;;;;;;11.27;6.30;;;17.20;99.90;;;;;;5012610;28;20189;-74
2021/07/26 02:57:35;;;;;;;6.77;6.13;;;17.20;99.90;;;;;;5012501;28;20734;-74
2021/07/26 03:00:03;;;;;;;7.03;5.77;;;17.20;99.90;;;;;;5013336;28;20284;-74
2021/07/26 03:02:28;;;;;;;9.90;6.00;;;17.20;99.90;;;;;;5014116;28;20218;-74
2021/07/26 03:04:58;;;;;;;8.00;6.00;;;17.30;99.90;;;;;;5013736;28;20293;-74
2021/07/26 03:07:23;;;;;;;8.80;6.13;;;17.20;99.90;;;;;;5012238;28;20210;-74
2021/07/26 03:09:49;;;;;;;9.50;6.20;;;17.20;99.90;;;;;;5013698;28;20183;-74
2021/07/26 03:12:14;;;;;;;8.67;6.70;;;17.10;99.90;;;;;;5012880;28;20229;-74
2021/07/26 03:14:40;;;;;;;7.07;5.40;;;17.10;99.90;;;;;;5012347;28;20552;-74
2021/07/26 03:17:06;;;;;;;6.67;6.00;;;17.20;99.90;;;;;;5011771;28;20224;-74
2021/07/26 03:19:33;;;;;;;8.13;5.30;;;17.20;99.90;;;;;;5013357;28;20604;-74
2021/07/26 03:22:40;;;;;;;8.77;5.27;;;17.20;99.90;;;;;;5013772;28;20235;-74
2021/07/26 03:25:06;;;;;;;8.63;5.90;;;17.10;99.90;;;;;;4992700;28;20226;-74
2021/07/26 03:27:32;;;;;;;8.43;5.43;;;17.20;99.90;;;;;;5012230;28;20204;-74
2021/07/26 03:29:57;;;;;;;8.63;5.30;;;17.10;99.90;;;;;;5013606;28;20512;-74
2021/07/26 03:32:23;;;;;;;8.03;5.73;;;17.00;99.90;;;;;;5013262;28;20171;-75
2021/07/26 03:34:49;;;;;;;13.63;5.47;;;17.00;99.90;;;;;;5013476;28;20190;-74
2021/07/26 03:37:14;;;;;;;12.03;5.60;;;17.00;99.90;;;;;;5013365;28;20209;-74
2021/07/26 03:39:40;;;;;;;6.93;5.23;;;17.00;99.90;;;;;;5013122;28;20197;-74
2021/07/26 03:42:05;;;;;;;8.47;5.73;;;17.00;99.90;;;;;;5012798;28;20182;-75
2021/07/26 03:44:31;;;;;;;7.73;5.67;;;16.90;99.90;;;;;;5013070;28;20171;-74
2021/07/26 03:47:00;;;;;;;8.40;5.30;;;17.00;99.90;;;;;;5010308;28;20213;-75
2021/07/26 03:49:25;;;;;;;10.70;6.47;;;16.90;99.90;;;;;;4999351;28;20200;-75
2021/07/26 03:51:51;;;;;;;9.23;6.30;;;16.90;99.90;;;;;;5006595;28;20201;-75
2021/07/26 03:54:17;;;;;;;7.37;6.30;;;16.80;99.90;;;;;;5011983;28;20177;-74
2021/07/26 03:56:42;;;;;;;13.20;6.93;;;16.70;99.90;;;;;;5011898;28;20218;-74
2021/07/26 03:59:08;;;;;;;10.93;6.03;;;16.70;99.90;;;;;;5012944;28;20196;-74
2021/07/26 04:01:34;;;;;;;8.43;6.27;;;16.70;99.90;;;;;;5010679;28;20188;-74
2021/07/26 04:03:59;;;;;;;6.97;5.13;;;16.70;99.90;;;;;;5012169;28;20237;-74
2021/07/26 04:06:25;;;;;;;11.67;6.27;;;16.60;99.90;;;;;;5014267;28;20538;-74
2021/07/26 04:08:52;;;;;;;7.40;5.87;;;16.50;99.90;;;;;;5010174;28;20179;-75
2021/07/26 04:11:24;;;;;;;7.80;6.33;;;16.60;99.90;;;;;;5011790;28;20210;-74
2021/07/26 04:14:09;;;;;;;9.57;6.30;;;16.60;99.90;;;;;;5012823;28;20191;-74
2021/07/26 04:16:35;;;;;;;9.83;6.13;;;16.70;99.90;;;;;;5011920;28;20233;-74
2021/07/26 04:19:02;;;;;;;8.60;6.17;;;16.70;99.90;;;;;;4995102;28;20182;-74
2021/07/26 04:21:32;;;;;;;8.87;6.37;;;16.80;99.90;;;;;;5012842;28;20183;-74
2021/07/26 04:23:59;;;;;;;9.10;5.63;;;16.80;99.90;;;;;;5012937;28;20595;-75
2021/07/26 04:26:25;;;;;;;6.83;6.17;;;16.80;99.90;;;;;;5012705;28;20206;-75
2021/07/26 04:28:51;;;;;;;9.10;6.23;;;16.80;99.90;;;;;;5012547;28;20193;-74
2021/07/26 04:31:17;;;;;;;11.87;6.00;;;16.90;99.90;;;;;;5012972;28;20175;-74
2021/07/26 04:33:43;;;;;;;13.73;6.77;;;16.70;99.90;;;;;;5013245;28;20210;-82
2021/07/26 04:36:09;;;;;;;11.60;6.87;;;16.70;99.90;;;;;;5000813;28;20185;-81
2021/07/26 04:38:35;;;;;;;7.17;6.03;;;16.80;99.90;;;;;;5018862;28;20200;-84
2021/07/26 04:41:01;;;;;;;15.47;7.07;;;16.80;99.90;;;;;;4999381;28;20644;-83
2021/07/26 04:43:27;;;;;;;9.40;6.73;;;16.80;99.90;;;;;;5000381;28;20277;-82
2021/07/26 04:45:55;;;;;;;8.60;6.17;;;16.80;99.90;;;;;;4999718;28;20184;-84
2021/07/26 04:48:21;;;;;;;9.47;7.30;;;16.80;99.90;;;;;;5015386;28;20285;-82
2021/07/26 04:50:46;;;;;;;10.80;6.20;;;16.90;99.90;;;;;;4996510;28;20186;-82
2021/07/26 04:53:12;;;;;;;7.50;6.63;;;16.80;99.90;;;;;;5017021;28;20195;-84
2021/07/26 04:55:37;;;;;;;11.33;7.10;;;16.80;99.90;;;;;;5019396;28;20241;-84
2021/07/26 04:58:03;;;;;;;8.37;7.10;;;16.90;99.90;;;;;;5020126;28;20313;-84
2021/07/26 05:00:30;;;;;;;10.47;8.13;;;16.90;99.90;;;;;;5007492;28;20182;-84
2021/07/26 05:02:56;;;;;;;12.23;7.77;;;16.90;99.90;;;;;;5007356;28;20591;-83
2021/07/26 05:05:21;;;;;;;10.13;7.97;;;17.00;99.90;;;;;;5007454;28;20204;-84
2021/07/26 05:07:47;;;;;;;12.70;8.40;;;17.00;99.90;;;;;;5025318;28;20220;-84
2021/07/26 05:10:13;;;;;;;11.83;7.77;;;17.10;99.90;;;;;;5019704;28;20233;-84
2021/07/26 05:12:39;;;;;;;8.63;6.73;;;17.10;99.90;;;;;;5003507;28;20190;-83
2021/07/26 05:15:05;;;;;;;12.37;7.33;;;17.20;99.90;;;;;;5003833;28;20192;-82
2021/07/26 05:17:31;;;;;;;17.67;8.40;;;17.20;99.90;;;;;;5008478;28;20299;-83
2021/07/26 05:20:00;;;;;;;8.93;8.03;;;17.10;99.90;;;;;;5035002;23;20691;-83
2021/07/26 05:22:26;;;;;;;12.27;8.40;;;17.30;99.90;;;;;;4988268;28;20175;-83
2021/07/26 05:25:01;;;;;;;9.73;8.57;;;17.20;99.90;;;;;;4992147;28;20239;-83
2021/07/26 05:27:32;;;;;;;13.73;8.70;;;17.30;99.90;;;;;;4993612;28;20199;-82
2021/07/26 05:30:11;;;;;;;11.53;8.60;;;17.40;99.90;;;;;;4989223;28;20670;-83
2021/07/26 05:32:39;;;;;;;11.67;10.20;;;17.40;99.90;;;;;;4986108;28;20174;-83
2021/07/26 05:35:06;;;;;;;11.80;10.57;;;17.30;99.90;;;;;;4998009;28;20184;-83
2021/07/26 05:37:34;;;;;;;13.17;10.17;;;17.40;99.90;;;;;;4998260;28;20234;-83
2021/07/26 05:40:08;;;;;;;14.40;10.50;;;17.40;99.90;;;;;;4991937;28;20204;-82
2021/07/26 05:42:35;;;;;;;12.60;10.30;;;17.50;99.90;;;;;;4994690;28;20651;-83
2021/07/26 05:45:03;;;;;;;11.70;10.57;;;17.60;99.90;;;;;;4998952;28;20183;-82
2021/07/26 05:47:29;;;;;;;23.67;14.50;;;17.60;99.90;;;;;;4997026;28;20568;-83
2021/07/26 05:49:55;;;;;;;24.10;16.00;;;17.70;99.90;;;;;;4998431;28;20288;-83
2021/07/26 05:52:20;;;;;;;19.77;14.00;;;17.70;99.90;;;;;;4998668;28;20262;-83
2021/07/26 05:54:47;;;;;;;15.00;13.37;;;17.70;99.90;;;;;;4999691;28;20183;-83
2021/07/26 05:57:15;;;;;;;17.10;12.17;;;17.80;99.90;;;;;;4999476;28;20229;-83
2021/07/26 05:59:41;;;;;;;13.23;11.90;;;17.80;99.90;;;;;;4998375;28;20211;-83
2021/07/26 06:02:07;;;;;;;15.57;13.93;;;17.80;99.90;;;;;;5002775;28;20198;-83
2021/07/26 06:04:32;;;;;;;17.87;15.10;;;17.90;99.90;;;;;;5000526;28;20183;-83
2021/07/26 06:06:58;;;;;;;16.07;13.73;;;17.90;99.90;;;;;;4998352;28;20190;-83
2021/07/26 06:09:24;;;;;;;14.30;12.90;;;17.90;99.90;;;;;;4999340;28;20215;-83
2021/07/26 06:11:51;;;;;;;15.87;13.77;;;17.90;99.90;;;;;;4997497;28;20194;-83
2021/07/26 06:14:17;;;;;;;20.70;14.03;;;17.90;99.90;;;;;;4987219;28;20174;-83
2021/07/26 06:16:44;;;;;;;18.00;15.70;;;18.00;99.90;;;;;;4997751;28;20183;-83
2021/07/26 06:19:11;;;;;;;16.03;14.20;;;18.10;99.90;;;;;;5003333;28;20241;-83
2021/07/26 06:21:45;;;;;;;17.47;13.20;;;18.20;99.90;;;;;;5001968;28;20214;-83
2021/07/26 06:24:11;;;;;;;16.50;14.00;;;18.30;99.90;;;;;;5001293;28;20177;-83
2021/07/26 06:26:37;;;;;;;7.77;7.17;;;18.30;99.90;;;;;;5000944;28;20228;-83
2021/07/26 06:29:03;;;;;;;8.20;7.40;;;18.30;99.90;;;;;;5018077;28;20195;-83
2021/07/26 06:31:29;;;;;;;8.10;7.40;;;18.30;99.90;;;;;;5018313;28;20171;-83
2021/07/26 06:33:55;;;;;;;9.00;7.20;;;18.40;99.90;;;;;;5001252;28;20561;-83
2021/07/26 06:36:21;;;;;;;8.73;6.90;;;18.40;99.90;;;;;;5017945;28;20183;-83
2021/07/26 06:38:46;;;;;;;9.70;8.70;;;18.50;99.90;;;;;;5000366;28;20181;-83
2021/07/26 06:41:12;;;;;;;8.53;7.73;;;18.60;99.90;;;;;;5013768;28;20181;-83
2021/07/26 06:43:37;;;;;;;8.57;7.87;;;18.60;99.90;;;;;;5000038;28;20186;-83
2021/07/26 06:46:06;;;;;;;7.73;7.13;;;18.60;99.90;;;;;;5017930;28;20634;-83
2021/07/26 06:48:32;;;;;;;12.43;9.87;;;18.60;99.90;;;;;;5000246;28;20203;-83
2021/07/26 06:50:58;;;;;;;10.20;9.30;;;18.70;99.90;;;;;;5000162;28;20209;-85
2021/07/26 06:53:25;;;;;;;9.00;8.20;;;18.70;99.90;;;;;;5000894;28;20186;-83
2021/07/26 06:55:51;;;;;;;7.43;6.73;;;18.80;99.90;;;;;;5005207;28;20182;-83
2021/07/26 06:58:17;;;;;;;7.30;6.70;;;18.80;99.90;;;;;;5016966;28;20236;-85
2021/07/26 07:00:42;;;;;;;6.60;6.10;;;18.90;99.90;;;;;;4999190;28;20211;-83
2021/07/26 07:03:08;;;;;;;7.63;6.90;;;18.90;99.90;;;;;;4998731;28;20186;-83
2021/07/26 07:05:34;;;;;;;6.97;6.27;;;19.00;99.90;;;;;;4999750;28;20202;-84
2021/07/26 07:07:59;;;;;;;6.00;5.50;;;19.00;99.90;;;;;;5016978;28;20284;-83
2021/07/26 07:10:25;;;;;;;5.60;5.10;;;19.00;99.90;;;;;;5017328;28;20202;-83
2021/07/26 07:12:54;;;;;;;6.50;6.00;;;19.10;99.90;;;;;;5017292;28;20210;-83
2021/07/26 07:15:21;;;;;;;6.27;5.77;;;19.00;99.90;;;;;;4999670;28;20265;-84
2021/07/26 07:17:49;;;;;;;7.40;6.70;;;19.10;99.90;;;;;;5010960;28;20648;-84
2021/07/26 07:20:16;;;;;;;7.03;6.43;;;19.10;99.90;;;;;;5010426;28;20221;-83
2021/07/26 07:22:42;;;;;;;7.47;6.77;;;19.20;99.90;;;;;;4999651;28;20647;-83
2021/07/26 07:25:08;;;;;;;7.00;6.30;;;19.10;99.90;;;;;;5003683;28;20232;-83
2021/07/26 07:27:34;;;;;;;7.77;5.80;;;19.00;99.90;;;;;;4999821;28;20206;-83
2021/07/26 07:30:00;;;;;;;6.60;6.10;;;18.90;99.90;;;;;;4999084;28;20206;-84
2021/07/26 07:32:25;;;;;;;5.63;5.23;;;18.90;99.90;;;;;;5012802;28;20187;-83
2021/07/26 07:34:51;;;;;;;6.33;5.73;;;19.00;99.90;;;;;;5014552;28;20179;-84
2021/07/26 07:37:17;;;;;;;6.93;6.27;;;19.00;99.90;;;;;;4997024;28;20571;-83
2021/07/26 07:39:43;;;;;;;7.37;6.67;;;19.00;99.90;;;;;;5008123;28;20203;-83
2021/07/26 07:42:08;;;;;;;8.00;7.30;;;19.00;99.90;;;;;;4998477;28;20538;-84
2021/07/26 07:44:34;;;;;;;8.27;6.63;;;19.00;99.90;;;;;;5003401;28;20175;-83
2021/07/26 07:47:03;;;;;;;7.27;6.57;;;19.10;99.90;;;;;;5004145;28;20745;-83
2021/07/26 07:52:36;;;;;;;7.07;6.47;;;19.30;99.90;;;;;;5042687;28;20196;-85
2021/07/26 07:55:05;;;;;;;7.67;6.93;;;19.40;99.90;;;;;;5043459;28;20638;-85
2021/07/26 07:57:32;;;;;;;6.77;6.17;;;19.30;99.90;;;;;;5032374;28;20189;-85
2021/07/26 07:59:58;;;;;;;8.17;7.37;;;19.40;99.90;;;;;;5027043;28;20202;-85
2021/07/26 08:02:30;;;;;;;7.57;6.47;;;19.40;99.90;;;;;;5033793;28;20205;-85
2021/07/26 08:05:02;;;;;;;7.27;6.57;;;19.50;99.90;;;;;;5040417;28;20269;-83
2021/07/26 08:07:51;;;;;;;6.50;5.90;;;19.50;99.90;;;;;;5022372;28;20766;-83
2021/07/26 08:10:17;;;;;;;8.77;7.60;;;19.50;99.90;;;;;;5036047;28;20551;-85
2021/07/26 08:12:43;;;;;;;7.97;7.17;;;19.50;99.90;;;;;;5030620;28;20172;-83
2021/07/26 08:15:23;;;;;;;8.57;7.67;;;19.50;99.90;;;;;;5027565;28;20213;-86
2021/07/26 08:17:54;;;;;;;9.93;7.73;;;19.70;99.90;;;;;;5033048;28;20202;-85
2021/07/26 08:20:20;;;;;;;7.83;6.97;;;19.80;99.90;;;;;;5039925;28;20228;-84
2021/07/26 08:22:49;;;;;;;8.07;7.27;;;19.70;99.90;;;;;;5046956;28;20193;-84
2021/07/26 08:25:20;;;;;;;8.83;7.93;;;19.60;99.90;;;;;;5046617;28;20190;-84
2021/07/26 08:28:10;;;;;;;8.93;8.07;;;19.50;99.90;;;;;;5028938;28;20220;-85
2021/07/26 08:30:44;;;;;;;10.57;8.13;;;19.50;99.90;;;;;;5046478;28;20190;-85
2021/07/26 08:33:13;;;;;;;8.53;7.43;;;19.50;99.90;;;;;;5052414;28;20197;-84
2021/07/26 08:35:47;;;;;;;9.73;7.60;;;19.50;99.90;;;;;;5024884;28;20175;-85
2021/07/26 08:38:16;;;;;;;8.57;6.93;;;19.50;99.90;;;;;;5033869;28;20216;-85
2021/07/26 08:40:44;;;;;;;9.40;7.20;;;19.60;99.90;;;;;;5045222;28;20226;-85
2021/07/26 08:46:49;;;;;;;10.13;7.63;;;19.60;99.90;;;;;;4996250;28;20205;-85
2021/07/26 08:49:38;;;;;;;10.27;7.53;;;19.70;99.90;;;;;;5038432;28;20213;-85
2021/07/26 08:52:10;;;;;;;10.03;7.10;;;19.70;99.90;;;;;;5014930;28;20210;-84
2021/07/26 08:54:45;;;;;;;9.60;7.23;;;19.80;99.90;;;;;;5048668;28;20671;-84
2021/07/26 08:57:11;;;;;;;6.93;5.97;;;19.80;99.90;;;;;;5054236;28;20248;-85
2021/07/26 09:02:39;;;;;;;7.73;6.60;;;19.90;99.90;;;;;;5036057;28;20317;-85
2021/07/26 09:05:32;;;;;;;7.07;5.90;;;20.20;99.90;;;;;;5058062;28;20178;-85
2021/07/26 09:08:10;;;;;;;7.03;6.30;;;20.30;99.90;;;;;;5056876;28;20205;-85
2021/07/26 09:11:02;;;;;;;8.73;6.40;;;20.50;99.90;;;;;;5032880;28;20198;-85
2021/07/26 09:13:47;;;;;;;8.23;6.23;;;20.40;99.90;;;;;;5048056;28;20165;-84
2021/07/26 09:16:30;;;;;;;9.67;6.30;;;20.60;99.90;;;;;;5050421;28;20177;-84
2021/07/26 09:24:34;;;;;;;7.27;6.57;;;20.80;99.90;;;;;;5003841;28;20211;-84
2021/07/26 09:30:35;;;;;;;7.33;5.80;;;21.00;99.90;;;;;;5005929;28;20205;-85
2021/07/26 09:59:32;;;;;;;4.60;4.20;;;22.00;99.90;;;;;;5005588;28;20228;-84
2021/07/26 10:01:38;;;;;;;5.83;4.93;;;22.10;99.90;;;;;;4979556;28;20192;-83
2021/07/26 10:04:11;;;;;;;6.30;5.07;;;22.50;99.90;;;;;;4974777;28;20672;-83
2021/07/26 10:06:51;;;;;;;5.03;4.30;;;22.70;99.90;;;;;;4997103;28;20172;-84
2021/07/26 10:09:23;;;;;;;4.10;3.80;;;22.60;99.90;;;;;;4982715;28;20258;-84
2021/07/26 10:12:30;;;;;;;4.50;3.87;;;22.60;99.90;;;;;;4995505;28;20270;-84
2021/07/26 10:17:59;;;;;;;4.93;4.40;;;22.50;99.90;;;;;;4924525;29;20272;-84
2021/07/26 10:20:41;;;;;;;4.80;4.40;;;22.70;99.90;;;;;;4955655;28;20240;-84
2021/07/26 10:24:02;;;;;;;4.53;4.13;;;23.00;99.90;;;;;;4981013;28;20247;-83
2021/07/26 10:27:03;;;;;;;4.50;4.07;;;22.90;99.90;;;;;;4910494;29;20212;-83
2021/07/26 10:29:58;;;;;;;5.83;5.23;;;23.00;99.90;;;;;;4979110;28;20719;-84
2021/07/26 10:32:44;;;;;;;5.63;5.10;;;23.10;99.90;;;;;;4909743;29;20195;-84
2021/07/26 10:35:38;;;;;;;5.07;4.63;;;23.10;99.90;;;;;;4971119;28;20223;-84
2021/07/26 10:38:11;;;;;;;7.33;6.63;;;23.30;99.90;;;;;;4968037;28;20282;-84
2021/07/26 10:43:54;;;;;;;6.80;6.10;;;23.50;99.90;;;;;;4989901;28;20180;-74
2021/07/26 10:46:20;;;;;;;9.63;7.23;;;23.60;99.90;;;;;;4954170;28;20196;-73
2021/07/26 10:48:50;;;;;;;7.77;6.97;;;23.60;99.90;;;;;;4974769;28;20211;-73
2021/07/26 10:51:38;;;;;;;7.43;6.73;;;23.60;99.90;;;;;;4973936;28;20180;-73
2021/07/26 10:54:05;;;;;;;10.10;8.20;;;23.60;99.90;;;;;;4973598;28;20319;-73
2021/07/26 10:56:59;;;;;;;14.73;8.40;;;23.80;99.90;;;;;;4971939;28;20196;-73
2021/07/26 10:59:25;;;;;;;11.77;9.27;;;23.70;99.90;;;;;;5010211;28;20214;-73
2021/07/26 11:02:01;;;;;;;8.80;7.90;;;23.80;99.90;;;;;;4990741;28;20187;-73
2021/07/26 11:04:32;;;;;;;5.93;5.43;;;24.00;99.90;;;;;;4991570;28;20183;-73
2021/07/26 11:07:03;;;;;;;7.53;5.10;;;24.10;99.90;;;;;;4992542;28;20207;-73
2021/07/26 11:09:34;;;;;;;7.37;5.40;;;24.00;99.90;;;;;;4992269;28;20196;-72
2021/07/26 11:12:02;;;;;;;4.77;4.30;;;24.10;99.90;;;;;;4992312;28;20180;-73
2021/07/26 11:14:28;;;;;;;5.23;4.47;;;24.10;99.90;;;;;;4988602;28;20184;-73
2021/07/26 11:17:11;;;;;;;5.13;4.63;;;24.40;99.90;;;;;;4992299;28;20282;-73
2021/07/26 11:19:40;;;;;;;5.23;3.60;;;24.50;99.90;;;;;;5021834;22;21275;-75
2021/07/26 11:22:15;;;;;;;4.40;4.00;;;24.50;99.90;;;;;;5050966;28;20220;-75
2021/07/26 11:24:40;;;;;;;5.37;4.87;;;24.70;99.90;;;;;;5029314;28;20169;-76
2021/07/26 11:27:10;;;;;;;5.20;4.53;;;24.70;99.90;;;;;;5052670;28;20622;-76
2021/07/26 11:29:36;;;;;;;5.33;4.30;;;24.80;99.90;;;;;;5051421;28;20229;-75
2021/07/26 11:32:02;;;;;;;4.70;4.30;;;25.00;99.90;;;;;;5016824;28;20183;-75
2021/07/26 11:34:30;;;;;;;5.27;4.70;;;25.20;99.90;;;;;;5017634;28;20182;-76
2021/07/26 11:37:04;;;;;;;4.40;4.00;;;25.10;99.90;;;;;;5013298;28;20241;-76
2021/07/26 11:39:59;;;;;;;4.00;3.50;;;25.00;99.90;;;;;;5014809;28;20178;-75
2021/07/26 11:42:35;;;;;;;8.13;6.13;;;25.30;99.90;;;;;;5033545;28;20185;-76
2021/07/26 11:45:02;;;;;;;3.23;2.97;;;25.60;99.90;;;;;;5029573;28;20200;-75
2021/07/26 11:47:44;;;;;;;3.60;3.10;;;25.80;99.90;;;;;;5034607;28;20210;-75
2021/07/26 11:50:11;;;;;;;3.63;2.93;;;25.80;99.90;;;;;;5026928;28;20198;-75
2021/07/26 11:52:38;;;;;;;5.20;3.20;;;26.00;99.90;;;;;;5037374;28;20257;-76
2021/07/26 11:55:16;;;;;;;3.43;3.13;;;25.90;99.90;;;;;;5035087;28;20179;-75
2021/07/26 11:58:12;;;;;;;2.87;2.67;;;25.80;99.90;;;;;;5009531;28;20514;-75
2021/07/26 12:00:47;;;;;;;2.70;2.50;;;26.00;99.90;;;;;;5019302;28;20202;-75
2021/07/26 12:03:17;;;;;;;2.80;2.60;;;26.20;99.90;;;;;;5015806;28;20186;-75
2021/07/26 12:05:42;;;;;;;3.73;3.10;;;26.40;99.90;;;;;;5014638;28;20187;-75
2021/07/26 12:08:16;;;;;;;2.60;2.40;;;26.30;99.90;;;;;;5035036;28;20205;-76
2021/07/26 12:10:42;;;;;;;3.20;2.90;;;26.30;99.90;;;;;;5021915;28;20216;-75
2021/07/26 12:13:11;;;;;;;2.87;2.67;;;26.50;99.90;;;;;;5039392;28;20592;-75
2021/07/26 12:15:42;;;;;;;2.80;2.60;;;26.50;99.90;;;;;;5032651;28;20236;-76
2021/07/26 12:18:10;;;;;;;7.00;2.90;;;26.60;99.90;;;;;;5019330;28;20182;-75
2021/07/26 12:20:37;;;;;;;2.83;2.63;;;26.70;99.90;;;;;;5037864;28;20694;-75
2021/07/26 12:23:12;;;;;;;3.17;2.80;;;26.60;99.90;;;;;;5033321;28;20277;-76
2021/07/26 12:25:49;;;;;;;2.60;2.40;;;26.40;99.90;;;;;;5033620;28;20186;-76
2021/07/26 12:28:16;;;;;;;2.73;2.50;;;26.50;99.90;;;;;;5033980;28;20206;-75
2021/07/26 12:30:44;;;;;;;2.73;2.53;;;26.50;99.90;;;;;;5014667;28;20495;-76
2021/07/26 12:33:12;;;;;;;3.20;2.90;;;26.50;99.90;;;;;;5031470;28;20608;-76
2021/07/26 12:35:38;;;;;;;2.80;2.57;;;26.40;99.90;;;;;;5029287;28;20650;-75
2021/07/26 12:38:20;;;;;;;2.80;2.60;;;26.30;99.90;;;;;;5034777;28;20179;-75
2021/07/26 12:41:02;;;;;;;2.90;2.70;;;26.40;99.90;;;;;;5016600;28;20229;-75
2021/07/26 12:43:27;;;;;;;3.03;2.70;;;26.40;99.90;;;;;;5035837;28;20598;-76
2021/07/26 12:45:58;;;;;;;2.90;2.70;;;26.40;99.90;;;;;;5033753;28;20179;-75
2021/07/26 12:48:26;;;;;;;2.80;2.60;;;26.40;99.90;;;;;;5031609;28;20206;-76
2021/07/26 12:50:52;;;;;;;3.10;2.67;;;26.40;99.90;;;;;;5016624;28;20340;-75
2021/07/26 12:53:18;;;;;;;4.00;2.80;;;26.40;99.90;;;;;;5035960;28;20202;-75
2021/07/26 12:55:45;;;;;;;3.17;2.60;;;26.30;99.90;;;;;;5033193;28;20183;-75
2021/07/26 12:58:15;;;;;;;2.87;2.40;;;26.30;99.90;;;;;;5036271;28;20170;-75
2021/07/26 13:00:41;;;;;;;2.70;2.50;;;26.20;99.90;;;;;;5035799;28;20215;-74
2021/07/26 13:03:13;;;;;;;2.70;2.50;;;26.20;99.90;;;;;;5019495;28;20175;-75
2021/07/26 13:05:57;;;;;;;2.73;2.53;;;26.20;99.90;;;;;;5035434;28;20170;-75
2021/07/26 13:08:23;;;;;;;3.20;2.90;;;26.10;99.90;;;;;;5019818;28;20190;-75
2021/07/26 13:10:49;;;;;;;3.30;3.00;;;26.10;99.90;;;;;;5033528;28;20210;-75
2021/07/26 13:13:17;;;;;;;3.27;2.77;;;25.70;99.90;;;;;;5031977;28;20178;-75
2021/07/26 13:15:44;;;;;;;5.47;3.03;;;25.50;99.90;;;;;;5034938;28;20179;-75
2021/07/26 13:18:11;;;;;;;3.60;3.20;;;25.50;99.90;;;;;;5029577;28;20182;-75
2021/07/26 13:20:38;;;;;;;5.67;3.30;;;25.40;99.90;;;;;;5024774;28;20233;-75
2021/07/26 13:23:03;;;;;;;3.33;3.00;;;25.20;99.90;;;;;;5027961;28;20193;-75
2021/07/26 13:25:32;;;;;;;4.80;3.67;;;25.20;99.90;;;;;;5047938;28;20268;-75
2021/07/26 13:28:00;;;;;;;3.87;3.57;;;24.90;99.90;;;;;;5033406;28;20293;-75
2021/07/26 13:30:29;;;;;;;3.93;3.63;;;24.90;99.90;;;;;;5030869;28;20638;-75
2021/07/26 13:32:56;;;;;;;4.30;3.90;;;24.60;99.90;;;;;;5034217;28;20175;-75
2021/07/26 13:35:22;;;;;;;8.67;3.80;;;24.40;99.90;;;;;;5037687;28;20674;-75
2021/07/26 13:37:48;;;;;;;4.07;3.10;;;24.50;99.90;;;;;;5037130;28;20647;-75
2021/07/26 13:40:14;;;;;;;3.57;3.23;;;24.30;99.90;;;;;;5028971;28;20199;-75
2021/07/26 13:42:40;;;;;;;4.57;3.30;;;24.10;99.90;;;;;;5031565;28;20193;-75
2021/07/26 13:45:06;;;;;;;3.70;3.37;;;24.00;99.90;;;;;;5033018;28;20206;-75
2021/07/26 13:47:33;;;;;;;3.83;3.50;;;23.90;99.90;;;;;;5036437;28;20662;-75